Brendan Turecamo — WDB9024 — position and weather

sailwx.info

Track history (hours):
 
Tides and Currents Weather Stations Pressure Air Temp Water Temp Dewpoint Dewpoint Depression Visibility Wind Speed Wind Dir Waves Ship Positions

Brendan Turecamo

Owner: Moran Towing Corporation, New Canaan, CT. More information available from US FCC via Universal Licensing System and Coast Guard Vessel Documentation Center.

Last reported at 2018-Jul-16 03:26 UTC. Time now 2018-Jul-16 06:47 UTC.
Position N 40°38' W 074°08'.

Length 33 m; draft 4.5 m.

Type: Tug. MMSI: 366946760.

Date/timePositionNaut miles runAvg speedWind from/ knotsBaromVisibWave heightAir tempDewpointWater temp
2018-Jul-16 03:26N 40°38' W 074°08'1 2.6
2018-Jul-16 03:00N 40°39' W 074°09'1 2.6
2018-Jul-16 02:30N 40°40' W 074°08'0 0.1
2018-Jul-16 02:00N 40°41' W 074°08'2 3.9
2018-Jul-16 01:29N 40°39' W 074°09'3 5.1
2018-Jul-16 00:56N 40°39' W 074°05'3 6.2
2018-Jul-16 00:30N 40°37' W 074°03'2 4.9
2018-Jul-16 00:00N 40°39' W 074°05'2 0.7
2018-Jul-15 20:40N 40°38' W 074°08'0 0.0
2018-Jul-15 20:29N 40°38' W 074°08'0 0.0
2018-Jul-15 19:58N 40°38' W 074°08'0 0.0
2018-Jul-15 19:30N 40°38' W 074°08'0 0.0
2018-Jul-15 18:59N 40°38' W 074°08'0 0.0
2018-Jul-15 18:27N 40°38' W 074°08'0 0.0
2018-Jul-15 17:31N 40°38' W 074°08'0 0.0
2018-Jul-15 03:22N 40°38' W 074°08'0 0.0
2018-Jul-14 23:23N 40°38' W 074°08'1 2.7
2018-Jul-14 22:59N 40°39' W 074°09'2 3.9
2018-Jul-14 22:29N 40°41' W 074°08'0 0.0
2018-Jul-14 21:56N 40°41' W 074°08'3 0.3
2018-Jul-14 13:14N 40°38' W 074°08'2 9.8
2018-Jul-14 13:00N 40°39' W 074°11'1 0.6
2018-Jul-14 11:05N 40°38' W 074°12'1 4.8
2018-Jul-14 10:56N 40°39' W 074°11'5 6.5
2018-Jul-14 10:14N 40°39' W 074°05'1 6.4
2018-Jul-14 10:00N 40°39' W 074°04'3 5.7
2018-Jul-14 09:30N 40°41' W 074°01'1 1.2
2018-Jul-14 09:00N 40°41' W 074°01'1 1.2
2018-Jul-14 08:30N 40°41' W 074°01'2 4.2
2018-Jul-14 08:00N 40°39' W 074°03'0 0.7
2018-Jul-14 07:30N 40°39' W 074°03'3 6.8
2018-Jul-14 07:00N 40°38' W 074°08'0 0.0
2018-Jul-14 06:22N 40°38' W 074°08'0 0.0
2018-Jul-14 06:00N 40°38' W 074°08'2 4.0
2018-Jul-14 05:30N 40°39' W 074°10'1 0.2
2018-Jul-13 22:59N 40°39' W 074°09'1 0.9
2018-Jul-13 21:49N 40°40' W 074°09'1 1.1
2018-Jul-13 20:27N 40°38' W 074°08'0 0.0
2018-Jul-13 12:46N 40°38' W 074°08'0 0.0
2018-Jul-13 12:29N 40°38' W 074°08'0 0.0
2018-Jul-13 11:53N 40°38' W 074°08'0 0.0
2018-Jul-13 11:29N 40°38' W 074°08'0 0.0
2018-Jul-13 10:59N 40°38' W 074°08'0 0.0
2018-Jul-13 10:30N 40°38' W 074°08'1 1.8
2018-Jul-13 10:01N 40°39' W 074°09'1 1.9
2018-Jul-13 09:26N 40°40' W 074°09'2 3.5
2018-Jul-13 09:00N 40°38' W 074°08'0 0.0
2018-Jul-13 08:02N 40°38' W 074°08'0 0.0
2018-Jul-13 07:59N 40°38' W 074°08'0 1.0
2018-Jul-13 07:30N 40°39' W 074°07'0 0.1
2018-Jul-13 07:00N 40°39' W 074°07'1 2.8
2018-Jul-13 06:30N 40°39' W 074°09'1 2.6
2018-Jul-13 06:01N 40°41' W 074°09'0 0.4
2018-Jul-13 05:30N 40°41' W 074°09'2 4.0
2018-Jul-13 05:01N 40°39' W 074°08'0 0.1
2018-Jul-13 00:24N 40°38' W 074°08'2 3.2
2018-Jul-12 23:55N 40°40' W 074°08'1 1.9
2018-Jul-12 23:30N 40°41' W 074°09'0 0.6
2018-Jul-12 22:57N 40°41' W 074°09'0 0.4
2018-Jul-12 22:30N 40°41' W 074°09'0 0.0
2018-Jul-12 22:00N 40°41' W 074°09'0 0.0
2018-Jul-12 21:25N 40°41' W 074°09'0 0.0
2018-Jul-12 20:58N 40°41' W 074°09'0 0.0
2018-Jul-12 20:30N 40°41' W 074°09'0 0.0
2018-Jul-12 19:56N 40°41' W 074°09'0 0.0
2018-Jul-12 19:25N 40°41' W 074°09'0 0.0
2018-Jul-12 18:59N 40°41' W 074°09'0 0.0
2018-Jul-12 18:29N 40°41' W 074°09'0 0.0
2018-Jul-12 17:57N 40°41' W 074°09'1 1.7
2018-Jul-12 17:24N 40°42' W 074°09'1 3.4
2018-Jul-12 17:00N 40°41' W 074°08'2 3.7
2018-Jul-12 16:23N 40°39' W 074°06'3 7.3
2018-Jul-12 16:00N 40°40' W 074°03'2 3.6
2018-Jul-12 15:30N 40°41' W 074°01'0 0.1
2018-Jul-12 15:00N 40°41' W 074°01'1 1.2
2018-Jul-12 14:31N 40°42' W 074°01'4 3.4
2018-Jul-12 13:18N 40°46' W 074°00'0 0.2
2018-Jul-12 11:44N 40°46' W 074°00'2 8.7
2018-Jul-12 11:30N 40°44' W 074°01'510.6
2018-Jul-12 11:00N 40°39' W 074°04'4 8.7
2018-Jul-12 10:30N 40°39' W 074°10'1 1.3
2018-Jul-12 09:43N 40°39' W 074°11'1 2.0
2018-Jul-12 09:20N 40°39' W 074°10'2 5.5
2018-Jul-12 08:58N 40°39' W 074°08'0 0.1
2018-Jul-12 08:26N 40°38' W 074°08'0 0.0
2018-Jul-12 08:00N 40°38' W 074°08'0 0.0
2018-Jul-12 07:24N 40°38' W 074°08'0 0.0
2018-Jul-12 07:00N 40°38' W 074°08'0 0.0
2018-Jul-12 00:24N 40°38' W 074°08'1 3.6
2018-Jul-12 00:00N 40°40' W 074°09'0 0.2
2018-Jul-11 23:30N 40°40' W 074°09'0 0.0
2018-Jul-11 23:00N 40°40' W 074°09'0 0.0
2018-Jul-11 22:30N 40°40' W 074°09'0 0.0
2018-Jul-11 22:00N 40°40' W 074°09'0 0.7
2018-Jul-11 21:28N 40°39' W 074°09'1 3.0
2018-Jul-11 21:00N 40°41' W 074°09'0 0.7
2018-Jul-11 20:30N 40°41' W 074°09'0 0.2
2018-Jul-11 20:00N 40°41' W 074°09'0 0.0
2018-Jul-11 19:30N 40°41' W 074°09'0 0.0
2018-Jul-11 19:00N 40°41' W 074°09'1 1.8
2018-Jul-11 18:30N 40°42' W 074°09'1 1.4
2018-Jul-11 17:47N 40°41' W 074°08'3 9.7
2018-Jul-11 17:30N 40°39' W 074°09'1 1.0
2018-Jul-11 16:51N 40°38' W 074°08'2 6.1
2018-Jul-11 16:30N 40°39' W 074°05'2 4.4
2018-Jul-11 16:00N 40°38' W 074°08'2 4.0
2018-Jul-11 15:30N 40°39' W 074°10'2 1.5
2018-Jul-11 14:27N 40°38' W 074°12'0 0.1
2018-Jul-11 13:56N 40°38' W 074°12'3 5.5
2018-Jul-11 13:26N 40°39' W 074°09'1 0.3
2018-Jul-11 11:13N 40°38' W 074°08'0 0.0
2018-Jul-11 10:45N 40°38' W 074°08'1 2.7
2018-Jul-11 10:30N 40°39' W 074°09'2 2.8
2018-Jul-11 09:47N 40°39' W 074°11'2 3.3
2018-Jul-11 09:15N 40°39' W 074°09'2 6.5
2018-Jul-11 08:58N 40°39' W 074°07'3 5.7
2018-Jul-11 08:31N 40°38' W 074°03'3 6.7
2018-Jul-11 08:00N 40°39' W 074°08'0 0.0
2018-Jul-11 01:38N 40°38' W 074°08'110.4
2018-Jul-11 01:31N 40°39' W 074°09'1 0.4
2018-Jul-10 21:39N 40°39' W 074°11'2 3.1
2018-Jul-10 20:57N 40°39' W 074°08'2 5.4
2018-Jul-10 20:30N 40°39' W 074°05'1 2.5
2018-Jul-10 20:00N 40°39' W 074°04'0 0.2
2018-Jul-10 19:31N 40°39' W 074°04'3 5.9
2018-Jul-10 19:00N 40°39' W 074°08'0 0.2
2018-Jul-10 18:30N 40°38' W 074°08'0 0.0
2018-Jul-10 17:47N 40°38' W 074°08'0 0.0
2018-Jul-10 17:23N 40°38' W 074°08'0 0.0
2018-Jul-10 16:56N 40°38' W 074°08'0 0.0
2018-Jul-10 16:28N 40°38' W 074°08'0 0.0
2018-Jul-10 15:51N 40°38' W 074°08'0 0.0
2018-Jul-10 15:06N 40°38' W 074°08'0 0.0
2018-Jul-10 14:38N 40°38' W 074°08'0 0.1
2018-Jul-10 14:28N 40°38' W 074°08'0 0.0
2018-Jul-10 13:47N 40°38' W 074°08'0 0.0
2018-Jul-10 12:06N 40°38' W 074°08'0 0.5
2018-Jul-10 11:59N 40°38' W 074°08'3 1.9
2018-Jul-10 10:24N 40°38' W 074°12'2 5.7
2018-Jul-10 09:59N 40°39' W 074°09'3 6.5
2018-Jul-10 09:29N 40°39' W 074°04'1 2.7
2018-Jul-10 09:00N 40°38' W 074°04'0 0.1
2018-Jul-10 08:30N 40°38' W 074°04'2 4.0
2018-Jul-10 08:00N 40°39' W 074°06'1 0.7
2018-Jul-10 05:47N 40°38' W 074°08'1 3.7
2018-Jul-10 05:29N 40°39' W 074°09'1 2.8
2018-Jul-10 05:00N 40°41' W 074°08'0 0.8
2018-Jul-10 04:30N 40°41' W 074°09'0 0.0
2018-Jul-10 03:59N 40°41' W 074°09'1 1.4
2018-Jul-10 03:27N 40°41' W 074°08'0 0.5
2018-Jul-10 02:46N 40°42' W 074°08'1 3.8
2018-Jul-10 02:30N 40°41' W 074°08'2 4.3
2018-Jul-10 02:00N 40°39' W 074°09'3 6.1
2018-Jul-10 01:30N 40°39' W 074°05'3 5.8
2018-Jul-10 01:00N 40°41' W 074°02'0 0.3
2018-Jul-10 00:30N 40°41' W 074°02'5 2.4
2018-Jul-09 22:24N 40°38' W 074°08'0 0.8
2018-Jul-09 22:00N 40°39' W 074°08'3 5.4
2018-Jul-09 21:30N 40°39' W 074°05'2 4.8
2018-Jul-09 21:00N 40°39' W 074°08'2 3.2
2018-Jul-09 20:30N 40°40' W 074°08'1 1.1
2018-Jul-09 20:01N 40°41' W 074°09'0 1.0
2018-Jul-09 19:30N 40°41' W 074°09'0 0.0
2018-Jul-09 19:00N 40°41' W 074°09'0 0.0
2018-Jul-09 18:21N 40°41' W 074°09'2 6.3
2018-Jul-09 17:59N 40°39' W 074°09'4 8.8
2018-Jul-09 17:30N 40°38' W 074°03'3 4.1
2018-Jul-09 16:43N 40°35' W 074°01'0 0.0
2018-Jul-09 16:30N 40°35' W 074°01'0 0.0
2018-Jul-09 16:00N 40°35' W 074°01'0 0.0
2018-Jul-09 15:30N 40°35' W 074°01'0 0.0
2018-Jul-09 14:11N 40°35' W 074°01'0 0.1
2018-Jul-09 14:00N 40°35' W 074°01'0 0.0
2018-Jul-09 13:30N 40°35' W 074°01'0 0.0
2018-Jul-09 13:00N 40°35' W 074°01'0 0.1
2018-Jul-09 12:30N 40°35' W 074°01'0 0.1
2018-Jul-09 12:00N 40°35' W 074°01'9 2.0
2018-Jul-09 07:39N 40°38' W 074°12'3 5.3
2018-Jul-09 07:10N 40°39' W 074°08'1 5.7
2018-Jul-09 06:57N 40°39' W 074°07'2 5.4
2018-Jul-09 06:30N 40°39' W 074°04'3 5.7
2018-Jul-09 06:00N 40°39' W 074°07'0 0.5
2018-Jul-09 05:25N 40°38' W 074°08'0 0.0
2018-Jul-09 04:56N 40°38' W 074°08'0 0.0
2018-Jul-09 03:53N 40°38' W 074°08'0 0.0
2018-Jul-08 17:56N 40°38' W 074°08'0 0.0
2018-Jul-08 17:18N 40°38' W 074°08'0 0.0
2018-Jul-08 16:55N 40°38' W 074°08'3 4.9
2018-Jul-08 16:23N 40°39' W 074°04'0 0.8
2018-Jul-08 15:56N 40°39' W 074°04'3 6.5
2018-Jul-08 15:26N 40°39' W 074°08'3 6.3
2018-Jul-08 15:00N 40°38' W 074°12'3 1.6
2018-Jul-08 13:20N 40°39' W 074°08'0 0.3
2018-Jul-08 11:30N 40°38' W 074°08'0 0.0
2018-Jul-08 11:00N 40°38' W 074°08'0 0.0
2018-Jul-08 10:30N 40°38' W 074°08'0 0.0
2018-Jul-08 10:00N 40°38' W 074°08'0 0.0
2018-Jul-08 09:30N 40°38' W 074°08'0 0.0
2018-Jul-08 08:58N 40°38' W 074°08'0 0.0
2018-Jul-08 08:30N 40°38' W 074°08'0 0.0
2018-Jul-08 08:00N 40°38' W 074°08'0 0.0
2018-Jul-08 07:30N 40°38' W 074°08'0 0.0
2018-Jul-08 07:00N 40°38' W 074°08'0 0.0
2018-Jul-08 06:30N 40°38' W 074°08'0 0.0
2018-Jul-08 06:00N 40°38' W 074°08'0 0.0
2018-Jul-08 05:30N 40°38' W 074°08'0 0.0
2018-Jul-08 05:00N 40°38' W 074°08'3 5.8
2018-Jul-08 04:28N 40°38' W 074°12'3 0.7
2018-Jul-08 00:34N 40°39' W 074°08'1 0.6
2018-Jul-07 23:44N 40°38' W 074°08'0 0.0
2018-Jul-07 22:31N 40°38' W 074°08'0 0.1
2018-Jul-07 22:28N 40°38' W 074°08'0 0.0
2018-Jul-07 20:57N 40°38' W 074°08'0 0.0
2018-Jul-07 20:29N 40°38' W 074°08'0 0.0
2018-Jul-07 19:57N 40°38' W 074°08'0 0.0
2018-Jul-07 19:30N 40°38' W 074°08'0 0.1
2018-Jul-07 18:53N 40°38' W 074°08'1 0.1
2018-Jul-07 12:37N 40°39' W 074°09'1 5.2
2018-Jul-07 12:30N 40°38' W 074°08'0 0.0
2018-Jul-07 10:44N 40°38' W 074°08'1 3.8
2018-Jul-07 10:24N 40°39' W 074°09'0 0.9
2018-Jul-07 10:00N 40°40' W 074°09'0 0.4
2018-Jul-07 09:30N 40°40' W 074°09'1 0.2
2018-Jul-07 03:00N 40°39' W 074°08'1 2.5
2018-Jul-07 02:30N 40°39' W 074°09'0 0.2
2018-Jul-07 01:45N 40°40' W 074°09'0 0.2
2018-Jul-07 01:30N 40°40' W 074°09'0 0.0
2018-Jul-07 01:00N 40°40' W 074°09'0 0.0
2018-Jul-07 00:30N 40°40' W 074°09'1 0.2
2018-Jul-06 20:04N 40°39' W 074°08'0 7.4
2018-Jul-06 20:00N 40°38' W 074°08'0 0.0
2018-Jul-06 13:00N 40°38' W 074°08'0 0.0
2018-Jul-06 10:55N 40°38' W 074°08'3 1.8
2018-Jul-06 09:31N 40°41' W 074°08'0 4.8
2018-Jul-06 09:30N 40°41' W 074°08'2 4.8
2018-Jul-06 09:00N 40°39' W 074°08'3 6.0
2018-Jul-06 08:30N 40°39' W 074°04'3 5.4
2018-Jul-06 08:00N 40°39' W 074°07'3 5.9
2018-Jul-06 07:30N 40°39' W 074°03'1 1.6
2018-Jul-06 07:00N 40°38' W 074°03'2 4.6
2018-Jul-06 06:30N 40°39' W 074°06'2 3.8
2018-Jul-06 06:00N 40°38' W 074°09'2 4.8
2018-Jul-06 05:30N 40°39' W 074°05'3 5.3
2018-Jul-06 05:00N 40°37' W 074°03'3 7.0
2018-Jul-06 04:30N 40°39' W 074°07'  
Track history (hours):
 
Tides and Currents Weather Stations Pressure Air Temp Water Temp Dewpoint Dewpoint Depression Visibility Wind Speed Wind Dir Waves Ship Positions

Brendan Turecamo

Owner: Moran Towing Corporation, New Canaan, CT. More information available from US FCC via Universal Licensing System and Coast Guard Vessel Documentation Center.

Last reported at 2018-Jul-16 03:26 UTC. Time now 2018-Jul-16 06:47 UTC.
Position N 40°38' W 074°08'.

Length 33 m; draft 4.5 m.

Type: Tug. MMSI: 366946760.

Date/timePositionNaut miles runAvg speedWind from/ knotsBaromVisibWave heightAir tempDewpointWater temp
2018-Jul-16 03:26N 40°38' W 074°08'1 2.6
2018-Jul-16 03:00N 40°39' W 074°09'1 2.6
2018-Jul-16 02:30N 40°40' W 074°08'0 0.1
2018-Jul-16 02:00N 40°41' W 074°08'2 3.9
2018-Jul-16 01:29N 40°39' W 074°09'3 5.1
2018-Jul-16 00:56N 40°39' W 074°05'3 6.2
2018-Jul-16 00:30N 40°37' W 074°03'2 4.9
2018-Jul-16 00:00N 40°39' W 074°05'2 0.7
2018-Jul-15 20:40N 40°38' W 074°08'0 0.0
2018-Jul-15 20:29N 40°38' W 074°08'0 0.0
2018-Jul-15 19:58N 40°38' W 074°08'0 0.0
2018-Jul-15 19:30N 40°38' W 074°08'0 0.0
2018-Jul-15 18:59N 40°38' W 074°08'0 0.0
2018-Jul-15 18:27N 40°38' W 074°08'0 0.0
2018-Jul-15 17:31N 40°38' W 074°08'0 0.0
2018-Jul-15 03:22N 40°38' W 074°08'0 0.0
2018-Jul-14 23:23N 40°38' W 074°08'1 2.7
2018-Jul-14 22:59N 40°39' W 074°09'2 3.9
2018-Jul-14 22:29N 40°41' W 074°08'0 0.0
2018-Jul-14 21:56N 40°41' W 074°08'3 0.3
2018-Jul-14 13:14N 40°38' W 074°08'2 9.8
2018-Jul-14 13:00N 40°39' W 074°11'1 0.6
2018-Jul-14 11:05N 40°38' W 074°12'1 4.8
2018-Jul-14 10:56N 40°39' W 074°11'5 6.5
2018-Jul-14 10:14N 40°39' W 074°05'1 6.4
2018-Jul-14 10:00N 40°39' W 074°04'3 5.7
2018-Jul-14 09:30N 40°41' W 074°01'1 1.2
2018-Jul-14 09:00N 40°41' W 074°01'1 1.2
2018-Jul-14 08:30N 40°41' W 074°01'2 4.2
2018-Jul-14 08:00N 40°39' W 074°03'0 0.7
2018-Jul-14 07:30N 40°39' W 074°03'3 6.8
2018-Jul-14 07:00N 40°38' W 074°08'0 0.0
2018-Jul-14 06:22N 40°38' W 074°08'0 0.0
2018-Jul-14 06:00N 40°38' W 074°08'2 4.0
2018-Jul-14 05:30N 40°39' W 074°10'1 0.2
2018-Jul-13 22:59N 40°39' W 074°09'1 0.9
2018-Jul-13 21:49N 40°40' W 074°09'1 1.1
2018-Jul-13 20:27N 40°38' W 074°08'0 0.0
2018-Jul-13 12:46N 40°38' W 074°08'0 0.0
2018-Jul-13 12:29N 40°38' W 074°08'0 0.0
2018-Jul-13 11:53N 40°38' W 074°08'0 0.0
2018-Jul-13 11:29N 40°38' W 074°08'0 0.0
2018-Jul-13 10:59N 40°38' W 074°08'0 0.0
2018-Jul-13 10:30N 40°38' W 074°08'1 1.8
2018-Jul-13 10:01N 40°39' W 074°09'1 1.9
2018-Jul-13 09:26N 40°40' W 074°09'2 3.5
2018-Jul-13 09:00N 40°38' W 074°08'0 0.0
2018-Jul-13 08:02N 40°38' W 074°08'0 0.0
2018-Jul-13 07:59N 40°38' W 074°08'0 1.0
2018-Jul-13 07:30N 40°39' W 074°07'0 0.1
2018-Jul-13 07:00N 40°39' W 074°07'1 2.8
2018-Jul-13 06:30N 40°39' W 074°09'1 2.6
2018-Jul-13 06:01N 40°41' W 074°09'0 0.4
2018-Jul-13 05:30N 40°41' W 074°09'2 4.0
2018-Jul-13 05:01N 40°39' W 074°08'0 0.1
2018-Jul-13 00:24N 40°38' W 074°08'2 3.2
2018-Jul-12 23:55N 40°40' W 074°08'1 1.9
2018-Jul-12 23:30N 40°41' W 074°09'0 0.6
2018-Jul-12 22:57N 40°41' W 074°09'0 0.4
2018-Jul-12 22:30N 40°41' W 074°09'0 0.0
2018-Jul-12 22:00N 40°41' W 074°09'0 0.0
2018-Jul-12 21:25N 40°41' W 074°09'0 0.0
2018-Jul-12 20:58N 40°41' W 074°09'0 0.0
2018-Jul-12 20:30N 40°41' W 074°09'0 0.0
2018-Jul-12 19:56N 40°41' W 074°09'0 0.0
2018-Jul-12 19:25N 40°41' W 074°09'0 0.0
2018-Jul-12 18:59N 40°41' W 074°09'0 0.0
2018-Jul-12 18:29N 40°41' W 074°09'0 0.0
2018-Jul-12 17:57N 40°41' W 074°09'1 1.7
2018-Jul-12 17:24N 40°42' W 074°09'1 3.4
2018-Jul-12 17:00N 40°41' W 074°08'2 3.7
2018-Jul-12 16:23N 40°39' W 074°06'3 7.3
2018-Jul-12 16:00N 40°40' W 074°03'2 3.6
2018-Jul-12 15:30N 40°41' W 074°01'0 0.1
2018-Jul-12 15:00N 40°41' W 074°01'1 1.2
2018-Jul-12 14:31N 40°42' W 074°01'4 3.4
2018-Jul-12 13:18N 40°46' W 074°00'0 0.2
2018-Jul-12 11:44N 40°46' W 074°00'2 8.7
2018-Jul-12 11:30N 40°44' W 074°01'510.6
2018-Jul-12 11:00N 40°39' W 074°04'4 8.7
2018-Jul-12 10:30N 40°39' W 074°10'1 1.3
2018-Jul-12 09:43N 40°39' W 074°11'1 2.0
2018-Jul-12 09:20N 40°39' W 074°10'2 5.5
2018-Jul-12 08:58N 40°39' W 074°08'0 0.1
2018-Jul-12 08:26N 40°38' W 074°08'0 0.0
2018-Jul-12 08:00N 40°38' W 074°08'0 0.0
2018-Jul-12 07:24N 40°38' W 074°08'0 0.0
2018-Jul-12 07:00N 40°38' W 074°08'0 0.0
2018-Jul-12 00:24N 40°38' W 074°08'1 3.6
2018-Jul-12 00:00N 40°40' W 074°09'0 0.2
2018-Jul-11 23:30N 40°40' W 074°09'0 0.0
2018-Jul-11 23:00N 40°40' W 074°09'0 0.0
2018-Jul-11 22:30N 40°40' W 074°09'0 0.0
2018-Jul-11 22:00N 40°40' W 074°09'0 0.7
2018-Jul-11 21:28N 40°39' W 074°09'1 3.0
2018-Jul-11 21:00N 40°41' W 074°09'0 0.7
2018-Jul-11 20:30N 40°41' W 074°09'0 0.2
2018-Jul-11 20:00N 40°41' W 074°09'0 0.0
2018-Jul-11 19:30N 40°41' W 074°09'0 0.0
2018-Jul-11 19:00N 40°41' W 074°09'1 1.8
2018-Jul-11 18:30N 40°42' W 074°09'1 1.4
2018-Jul-11 17:47N 40°41' W 074°08'3 9.7
2018-Jul-11 17:30N 40°39' W 074°09'1 1.0
2018-Jul-11 16:51N 40°38' W 074°08'2 6.1
2018-Jul-11 16:30N 40°39' W 074°05'2 4.4
2018-Jul-11 16:00N 40°38' W 074°08'2 4.0
2018-Jul-11 15:30N 40°39' W 074°10'2 1.5
2018-Jul-11 14:27N 40°38' W 074°12'0 0.1
2018-Jul-11 13:56N 40°38' W 074°12'3 5.5
2018-Jul-11 13:26N 40°39' W 074°09'1 0.3
2018-Jul-11 11:13N 40°38' W 074°08'0 0.0
2018-Jul-11 10:45N 40°38' W 074°08'1 2.7
2018-Jul-11 10:30N 40°39' W 074°09'2 2.8
2018-Jul-11 09:47N 40°39' W 074°11'2 3.3
2018-Jul-11 09:15N 40°39' W 074°09'2 6.5
2018-Jul-11 08:58N 40°39' W 074°07'3 5.7
2018-Jul-11 08:31N 40°38' W 074°03'3 6.7
2018-Jul-11 08:00N 40°39' W 074°08'0 0.0
2018-Jul-11 01:38N 40°38' W 074°08'110.4
2018-Jul-11 01:31N 40°39' W 074°09'1 0.4
2018-Jul-10 21:39N 40°39' W 074°11'2 3.1
2018-Jul-10 20:57N 40°39' W 074°08'2 5.4
2018-Jul-10 20:30N 40°39' W 074°05'1 2.5
2018-Jul-10 20:00N 40°39' W 074°04'0 0.2
2018-Jul-10 19:31N 40°39' W 074°04'3 5.9
2018-Jul-10 19:00N 40°39' W 074°08'0 0.2
2018-Jul-10 18:30N 40°38' W 074°08'0 0.0
2018-Jul-10 17:47N 40°38' W 074°08'0 0.0
2018-Jul-10 17:23N 40°38' W 074°08'0 0.0
2018-Jul-10 16:56N 40°38' W 074°08'0 0.0
2018-Jul-10 16:28N 40°38' W 074°08'0 0.0
2018-Jul-10 15:51N 40°38' W 074°08'0 0.0
2018-Jul-10 15:06N 40°38' W 074°08'0 0.0
2018-Jul-10 14:38N 40°38' W 074°08'0 0.1
2018-Jul-10 14:28N 40°38' W 074°08'0 0.0
2018-Jul-10 13:47N 40°38' W 074°08'0 0.0
2018-Jul-10 12:06N 40°38' W 074°08'0 0.5
2018-Jul-10 11:59N 40°38' W 074°08'3 1.9
2018-Jul-10 10:24N 40°38' W 074°12'2 5.7
2018-Jul-10 09:59N 40°39' W 074°09'3 6.5
2018-Jul-10 09:29N 40°39' W 074°04'1 2.7
2018-Jul-10 09:00N 40°38' W 074°04'0 0.1
2018-Jul-10 08:30N 40°38' W 074°04'2 4.0
2018-Jul-10 08:00N 40°39' W 074°06'1 0.7
2018-Jul-10 05:47N 40°38' W 074°08'1 3.7
2018-Jul-10 05:29N 40°39' W 074°09'1 2.8
2018-Jul-10 05:00N 40°41' W 074°08'0 0.8
2018-Jul-10 04:30N 40°41' W 074°09'0 0.0
2018-Jul-10 03:59N 40°41' W 074°09'1 1.4
2018-Jul-10 03:27N 40°41' W 074°08'0 0.5
2018-Jul-10 02:46N 40°42' W 074°08'1 3.8
2018-Jul-10 02:30N 40°41' W 074°08'2 4.3
2018-Jul-10 02:00N 40°39' W 074°09'3 6.1
2018-Jul-10 01:30N 40°39' W 074°05'3 5.8
2018-Jul-10 01:00N 40°41' W 074°02'0 0.3
2018-Jul-10 00:30N 40°41' W 074°02'5 2.4
2018-Jul-09 22:24N 40°38' W 074°08'0 0.8
2018-Jul-09 22:00N 40°39' W 074°08'3 5.4
2018-Jul-09 21:30N 40°39' W 074°05'2 4.8
2018-Jul-09 21:00N 40°39' W 074°08'2 3.2
2018-Jul-09 20:30N 40°40' W 074°08'1 1.1
2018-Jul-09 20:01N 40°41' W 074°09'0 1.0
2018-Jul-09 19:30N 40°41' W 074°09'0 0.0
2018-Jul-09 19:00N 40°41' W 074°09'0 0.0
2018-Jul-09 18:21N 40°41' W 074°09'2 6.3
2018-Jul-09 17:59N 40°39' W 074°09'4 8.8
2018-Jul-09 17:30N 40°38' W 074°03'3 4.1
2018-Jul-09 16:43N 40°35' W 074°01'0 0.0
2018-Jul-09 16:30N 40°35' W 074°01'0 0.0
2018-Jul-09 16:00N 40°35' W 074°01'0 0.0
2018-Jul-09 15:30N 40°35' W 074°01'0 0.0
2018-Jul-09 14:11N 40°35' W 074°01'0 0.1
2018-Jul-09 14:00N 40°35' W 074°01'0 0.0
2018-Jul-09 13:30N 40°35' W 074°01'0 0.0
2018-Jul-09 13:00N 40°35' W 074°01'0 0.1
2018-Jul-09 12:30N 40°35' W 074°01'0 0.1
2018-Jul-09 12:00N 40°35' W 074°01'9 2.0
2018-Jul-09 07:39N 40°38' W 074°12'3 5.3
2018-Jul-09 07:10N 40°39' W 074°08'1 5.7
2018-Jul-09 06:57N 40°39' W 074°07'2 5.4
2018-Jul-09 06:30N 40°39' W 074°04'3 5.7
2018-Jul-09 06:00N 40°39' W 074°07'0 0.5
2018-Jul-09 05:25N 40°38' W 074°08'0 0.0
2018-Jul-09 04:56N 40°38' W 074°08'0 0.0
2018-Jul-09 03:53N 40°38' W 074°08'0 0.0
2018-Jul-08 17:56N 40°38' W 074°08'0 0.0
2018-Jul-08 17:18N 40°38' W 074°08'0 0.0
2018-Jul-08 16:55N 40°38' W 074°08'3 4.9
2018-Jul-08 16:23N 40°39' W 074°04'0 0.8
2018-Jul-08 15:56N 40°39' W 074°04'3 6.5
2018-Jul-08 15:26N 40°39' W 074°08'3 6.3
2018-Jul-08 15:00N 40°38' W 074°12'3 1.6
2018-Jul-08 13:20N 40°39' W 074°08'0 0.3
2018-Jul-08 11:30N 40°38' W 074°08'0 0.0
2018-Jul-08 11:00N 40°38' W 074°08'0 0.0
2018-Jul-08 10:30N 40°38' W 074°08'0 0.0
2018-Jul-08 10:00N 40°38' W 074°08'0 0.0
2018-Jul-08 09:30N 40°38' W 074°08'0 0.0
2018-Jul-08 08:58N 40°38' W 074°08'0 0.0
2018-Jul-08 08:30N 40°38' W 074°08'0 0.0
2018-Jul-08 08:00N 40°38' W 074°08'0 0.0
2018-Jul-08 07:30N 40°38' W 074°08'0 0.0
2018-Jul-08 07:00N 40°38' W 074°08'0 0.0
2018-Jul-08 06:30N 40°38' W 074°08'0 0.0
2018-Jul-08 06:00N 40°38' W 074°08'0 0.0
2018-Jul-08 05:30N 40°38' W 074°08'0 0.0
2018-Jul-08 05:00N 40°38' W 074°08'3 5.8
2018-Jul-08 04:28N 40°38' W 074°12'3 0.7
2018-Jul-08 00:34N 40°39' W 074°08'1 0.6
2018-Jul-07 23:44N 40°38' W 074°08'0 0.0
2018-Jul-07 22:31N 40°38' W 074°08'0 0.1
2018-Jul-07 22:28N 40°38' W 074°08'0 0.0
2018-Jul-07 20:57N 40°38' W 074°08'0 0.0
2018-Jul-07 20:29N 40°38' W 074°08'0 0.0
2018-Jul-07 19:57N 40°38' W 074°08'0 0.0
2018-Jul-07 19:30N 40°38' W 074°08'0 0.1
2018-Jul-07 18:53N 40°38' W 074°08'1 0.1
2018-Jul-07 12:37N 40°39' W 074°09'1 5.2
2018-Jul-07 12:30N 40°38' W 074°08'0 0.0
2018-Jul-07 10:44N 40°38' W 074°08'1 3.8
2018-Jul-07 10:24N 40°39' W 074°09'0 0.9
2018-Jul-07 10:00N 40°40' W 074°09'0 0.4
2018-Jul-07 09:30N 40°40' W 074°09'1 0.2
2018-Jul-07 03:00N 40°39' W 074°08'1 2.5
2018-Jul-07 02:30N 40°39' W 074°09'0 0.2
2018-Jul-07 01:45N 40°40' W 074°09'0 0.2
2018-Jul-07 01:30N 40°40' W 074°09'0 0.0
2018-Jul-07 01:00N 40°40' W 074°09'0 0.0
2018-Jul-07 00:30N 40°40' W 074°09'1 0.2
2018-Jul-06 20:04N 40°39' W 074°08'0 7.4
2018-Jul-06 20:00N 40°38' W 074°08'0 0.0
2018-Jul-06 13:00N 40°38' W 074°08'0 0.0
2018-Jul-06 10:55N 40°38' W 074°08'3 1.8
2018-Jul-06 09:31N 40°41' W 074°08'0 4.8
2018-Jul-06 09:30N 40°41' W 074°08'2 4.8
2018-Jul-06 09:00N 40°39' W 074°08'3 6.0
2018-Jul-06 08:30N 40°39' W 074°04'3 5.4
2018-Jul-06 08:00N 40°39' W 074°07'3 5.9
2018-Jul-06 07:30N 40°39' W 074°03'1 1.6
2018-Jul-06 07:00N 40°38' W 074°03'2 4.6
2018-Jul-06 06:30N 40°39' W 074°06'2 3.8
2018-Jul-06 06:00N 40°38' W 074°09'2 4.8
2018-Jul-06 05:30N 40°39' W 074°05'3 5.3
2018-Jul-06 05:00N 40°37' W 074°03'3 7.0
2018-Jul-06 04:30N 40°39' W 074°07'  

Dump ship's entire track history